Hampton, Florida
Current Conditions -  °F | °C
As of 11:55 PM on Saturday 22 Nov 2014 (Local Time) from K42J Reporting Station
Few Clouds Few Clouds  
Wind Chill: 68°   Ceiling: Unl
Heat Index: 68°   Visibility: 7mi
Dew Point: 64°   Wind: 8mph
Humidity: 88%   Direction: 100°E
Pressure: 30.12"   Gusts: NA
Location:  29.86°N, 82.13°W
Report Text: K42J 230455Z AUTO 10007KT 7SM FEW029 20/18 A3012 RMK AO1 TSNO
Loading
Personal Weather Stations






























Interactive Weather Map New forecast layout! Learn more

10-Day Weather Forecast

Advertisements
Track Severe Weather on mobile